Time;durP1;ratioP1;P1;durP2;ratioP2;P2;SDS_P1;SDS_P2;PMS_P1;PMS_P2;Temp;Humidity;BMP_temperature;BMP_pressure;BME280_temperature;BME280_humidity;BME280_pressure;Samples;Min_cycle;Max_cycle;Signal;HPM_P1;HPM_P2
2020/12/29 00:01:38;;;;;;;12.70;9.23;;;;;;;6.56;65.73;96068.72;119122;1151;65113;-84
2020/12/29 00:04:07;;;;;;;12.93;7.93;;;;;;;6.36;65.77;96079.40;119281;1150;65057;-82
2020/12/29 00:06:35;;;;;;;12.97;8.40;;;;;;;6.24;66.14;96083.25;119151;1151;65126;-83
2020/12/29 00:09:01;;;;;;;12.67;8.30;;;;;;;6.15;66.08;96069.08;118592;1151;65073;-83
2020/12/29 00:11:30;;;;;;;13.30;8.50;;;;;;;6.04;66.29;96058.70;118776;1150;65054;-82
2020/12/29 00:13:57;;;;;;;12.80;8.60;;;;;;;5.95;66.57;96059.60;118763;1150;65115;-83
2020/12/29 00:16:23;;;;;;;13.67;8.37;;;;;;;5.84;66.33;96062.38;118782;1150;65165;-82
2020/12/29 00:18:51;;;;;;;13.10;8.67;;;;;;;5.80;66.80;96055.73;118803;1150;65179;-82
2020/12/29 00:21:19;;;;;;;7.03;4.40;;;;;;;5.81;66.81;96049.46;118620;1151;65187;-82
2020/12/29 00:23:46;;;;;;;3.35;2.60;;;;;;;5.96;66.88;96044.57;119284;1150;65153;-83
2020/12/29 00:26:14;;;;;;;4.43;2.67;;;;;;;6.10;66.74;96038.77;119291;1150;65092;-83
2020/12/29 00:28:41;;;;;;;4.33;2.73;;;;;;;6.29;66.77;96038.68;119346;1150;66369;-83
2020/12/29 00:31:08;;;;;;;4.33;3.10;;;;;;;6.48;66.65;96021.02;119342;1151;65112;-81
2020/12/29 00:33:35;;;;;;;4.40;2.70;;;;;;;6.59;66.38;96020.78;119027;1151;65188;-82
2020/12/29 00:36:02;;;;;;;4.80;3.00;;;;;;;6.69;65.92;96028.63;119307;1150;65132;-81
2020/12/29 00:38:29;;;;;;;6.33;4.10;;;;;;;6.74;65.62;96027.21;119061;1151;65215;-81
2020/12/29 00:40:55;;;;;;;5.27;3.40;;;;;;;6.76;65.33;96027.86;119304;1150;65552;-80
2020/12/29 00:43:22;;;;;;;3.95;2.95;;;;;;;6.80;65.58;96031.89;119318;1150;65220;-81
2020/12/29 00:45:48;;;;;;;4.35;3.40;;;;;;;6.81;65.49;96019.48;119293;1150;65124;-81
2020/12/29 00:48:14;;;;;;;5.10;3.17;;;;;;;6.80;65.17;96034.53;119325;1151;65169;-81
2020/12/29 00:50:41;;;;;;;4.33;3.47;;;;;;;6.77;65.21;96028.72;119330;1150;65073;-82
2020/12/29 00:53:08;;;;;;;4.77;3.30;;;;;;;6.75;64.90;96020.92;119063;1151;65131;-81
2020/12/29 00:55:35;;;;;;;3.77;3.10;;;;;;;6.72;64.84;96015.94;119121;1151;65062;-81
2020/12/29 00:58:01;;;;;;;3.87;2.87;;;;;;;6.71;65.23;96016.91;119350;1150;65098;-81
2020/12/29 01:00:28;;;;;;;4.08;3.25;;;;;;;6.67;64.92;96015.56;119311;1151;65139;-81
2020/12/29 01:02:54;;;;;;;6.33;3.97;;;;;;;6.65;65.24;96003.47;119326;1150;65554;-81
2020/12/29 01:05:20;;;;;;;6.00;4.20;;;;;;;6.60;65.57;96017.14;119272;1150;65207;-81
2020/12/29 01:07:47;;;;;;;4.93;3.33;;;;;;;6.57;65.39;96012.16;119028;1151;65548;-81
2020/12/29 01:10:14;;;;;;;6.17;3.87;;;;;;;6.51;65.50;95997.72;119328;1151;65118;-81
2020/12/29 01:12:40;;;;;;;5.33;3.70;;;;;;;6.47;65.13;95996.34;119097;1151;65102;-81
2020/12/29 01:15:06;;;;;;;6.63;3.80;;;;;;;6.40;65.09;95982.09;119326;1151;65097;-81
2020/12/29 01:17:33;;;;;;;6.97;4.80;;;;;;;6.38;65.60;95986.69;118943;1150;65226;-81
2020/12/29 01:20:00;;;;;;;7.20;4.80;;;;;;;6.32;65.64;95980.19;119142;1150;65083;-81
2020/12/29 01:22:26;;;;;;;7.75;4.45;;;;;;;6.26;65.78;95983.41;118858;1151;65123;-82
2020/12/29 01:24:52;;;;;;;7.67;5.15;;;;;;;6.20;65.97;95991.96;119049;1151;65107;-82
2020/12/29 01:27:19;;;;;;;7.43;4.43;;;;;;;6.14;66.18;95985.46;119250;1151;65117;-82
2020/12/29 01:29:46;;;;;;;6.27;4.43;;;;;;;6.12;66.21;95978.66;118713;1151;65196;-82
2020/12/29 01:32:12;;;;;;;6.67;4.20;;;;;;;6.10;66.22;95978.80;118925;1151;65194;-80
2020/12/29 01:34:39;;;;;;;6.60;3.80;;;;;;;6.09;66.38;95984.25;119333;1150;65143;-81
2020/12/29 01:37:05;;;;;;;5.83;4.67;;;;;;;6.10;66.52;95980.61;119035;1151;65165;-82
2020/12/29 01:39:31;;;;;;;9.27;5.30;;;;;;;6.10;66.56;95983.25;119142;1151;65188;-82
2020/12/29 01:41:58;;;;;;;7.50;5.70;;;;;;;6.11;66.50;95983.12;119151;1151;65117;-81
2020/12/29 01:44:25;;;;;;;7.50;5.13;;;;;;;6.12;66.38;95995.34;119306;1150;65155;-81
2020/12/29 01:46:52;;;;;;;6.85;4.80;;;;;;;6.10;66.66;95975.33;119082;1151;65116;-81
2020/12/29 01:49:19;;;;;;;7.67;5.30;;;;;;;6.10;66.74;95977.97;119300;1151;65115;-82
2020/12/29 01:51:45;;;;;;;8.60;5.90;;;;;;;6.07;66.86;95983.56;119266;1150;65066;-82
2020/12/29 01:54:12;;;;;;;8.30;5.80;;;;;;;6.05;66.81;95973.12;119366;1150;65114;-82
2020/12/29 01:56:41;;;;;;;8.20;6.10;;;;;;;6.03;66.94;95980.39;118558;1150;65111;-80
2020/12/29 01:59:11;;;;;;;8.63;5.27;;;;;;;6.03;67.21;95971.60;118734;1150;65114;-82
2020/12/29 02:01:39;;;;;;;5.87;4.27;;;;;;;6.04;67.37;95962.72;119103;1151;65548;-82
2020/12/29 02:04:13;;;;;;;6.87;3.80;;;;;;;6.08;67.43;95967.56;119163;1150;65098;-81
2020/12/29 02:06:39;;;;;;;5.87;3.93;;;;;;;6.13;67.90;95967.09;119311;1151;65117;-81
2020/12/29 02:09:10;;;;;;;7.07;4.77;;;;;;;6.16;67.73;95964.14;119111;1151;65261;-81
2020/12/29 02:11:36;;;;;;;6.17;4.77;;;;;;;6.18;68.00;95964.00;119115;1150;65705;-82
2020/12/29 02:14:08;;;;;;;6.57;4.97;;;;;;;6.16;68.12;95956.20;119038;1151;65120;-81
2020/12/29 02:16:39;;;;;;;5.03;4.53;;;;;;;6.15;68.40;95947.45;119140;1150;65188;-81
2020/12/29 02:19:06;;;;;;;5.95;4.10;;;;;;;6.18;68.42;95950.78;119305;1150;65108;-81
2020/12/29 02:21:34;;;;;;;10.03;4.03;;;;;;;6.19;68.98;95944.50;119292;1150;65458;-81
2020/12/29 02:24:02;;;;;;;6.03;4.10;;;;;;;6.18;68.64;95945.49;119293;1150;65071;-80
2020/12/29 02:26:34;;;;;;;5.83;3.90;;;;;;;6.21;69.09;95948.66;119012;1150;65140;-81
2020/12/29 02:29:02;;;;;;;7.07;4.10;;;;;;;6.20;69.21;95946.19;118839;1151;65258;-81
2020/12/29 02:31:29;;;;;;;4.80;3.27;;;;;;;6.21;68.99;95934.61;118943;1150;65118;-82
2020/12/29 02:33:56;;;;;;;6.77;3.60;;;;;;;6.25;69.43;95928.88;118539;1150;65184;-82
2020/12/29 02:36:23;;;;;;;5.70;3.47;;;;;;;6.24;69.32;95926.38;119071;1151;65121;-81
2020/12/29 02:38:50;;;;;;;4.97;3.80;;;;;;;6.25;69.57;95928.88;119094;1151;65487;-82
2020/12/29 02:41:17;;;;;;;3.30;2.33;;;;;;;6.26;69.65;95914.66;119207;1150;65094;-80
2020/12/29 02:43:45;;;;;;;4.23;2.33;;;;;;;6.30;70.14;95913.39;118717;1151;66289;-80
2020/12/29 02:46:15;;;;;;;4.03;3.20;;;;;;;6.37;70.21;95908.30;119282;1151;65241;-81
2020/12/29 02:48:41;;;;;;;;;;;;;;;6.46;69.90;95914.52;119071;1151;65099;-81
2020/12/29 02:51:08;;;;;;;3.00;2.13;;;;;;;6.52;69.99;95921.83;119291;1151;65025;-81
2020/12/29 02:53:34;;;;;;;3.47;2.73;;;;;;;6.54;69.77;95911.93;119116;1151;65311;-81
2020/12/29 02:56:01;;;;;;;5.43;4.10;;;;;;;6.49;69.60;95909.73;119093;1151;65182;-81
2020/12/29 02:58:27;;;;;;;7.13;5.03;;;;;;;6.46;69.56;95906.58;119290;1151;65118;-81
2020/12/29 03:00:54;;;;;;;7.13;4.70;;;;;;;6.39;69.48;95903.70;119070;1151;65161;-80
2020/12/29 03:03:20;;;;;;;6.42;4.37;;;;;;;6.31;69.82;95904.46;119160;1151;65133;-80
2020/12/29 03:05:47;;;;;;;6.40;4.30;;;;;;;6.25;69.56;95898.97;119097;1149;65098;-80
2020/12/29 03:08:13;;;;;;;6.27;4.70;;;;;;;6.16;69.69;95892.75;119304;1150;65140;-82
2020/12/29 03:10:40;;;;;;;5.50;4.35;;;;;;;6.10;69.76;95894.19;119304;1151;65034;-82
2020/12/29 03:13:06;;;;;;;8.30;5.80;;;;;;;6.06;69.85;95902.60;119041;1151;65095;-81
2020/12/29 03:15:32;;;;;;;10.97;6.30;;;;;;;5.99;69.93;95899.71;119355;1150;65063;-82
2020/12/29 03:17:59;;;;;;;9.33;5.73;;;;;;;5.96;70.23;95893.91;119296;1151;65115;-81
2020/12/29 03:20:25;;;;;;;7.57;5.40;;;;;;;5.90;70.38;95893.49;118791;1150;65259;-81
2020/12/29 03:22:51;;;;;;;8.53;5.30;;;;;;;5.89;70.36;95898.91;119028;1151;65133;-79
2020/12/29 03:25:18;;;;;;;8.73;5.27;;;;;;;5.89;70.24;95905.03;118562;1151;65145;-81
2020/12/29 03:27:44;;;;;;;7.30;5.33;;;;;;;5.92;70.58;95901.25;119305;1150;65111;-81
2020/12/29 03:30:10;;;;;;;8.30;5.30;;;;;;;5.95;70.60;95895.73;119067;1151;65121;-81
2020/12/29 03:32:37;;;;;;;8.05;6.00;;;;;;;5.94;70.60;95892.23;119063;1151;65170;-83
2020/12/29 03:35:03;;;;;;;7.07;5.80;;;;;;;5.95;70.72;95893.08;119301;1151;65127;-83
2020/12/29 03:37:30;;;;;;;9.23;5.70;;;;;;;5.95;70.69;95895.73;119299;1150;65100;-80
2020/12/29 03:39:56;;;;;;;7.58;6.40;;;;;;;5.93;70.68;95881.79;119329;1151;65051;-81
2020/12/29 03:42:22;;;;;;;9.43;5.87;;;;;;;5.89;70.89;95875.13;119301;1150;65127;-82
2020/12/29 03:44:49;;;;;;;7.73;5.53;;;;;;;5.88;70.88;95876.13;119327;1151;65054;-82
2020/12/29 03:47:16;;;;;;;8.47;6.37;;;;;;;5.87;71.03;95871.80;119308;1151;65167;-81
2020/12/29 03:49:45;;;;;;;8.77;5.77;;;;;;;5.86;71.01;95868.33;119319;1150;65028;-81
2020/12/29 03:52:12;;;;;;;30.07;24.70;;;;;;;5.85;71.04;95864.05;119143;1150;65178;-83
2020/12/29 03:54:38;;;;;;;69.80;54.13;;;;;;;5.83;70.93;95865.17;118945;1151;65223;-82
2020/12/29 03:57:05;;;;;;;77.00;54.80;;;;;;;5.82;71.14;95864.34;119243;1150;65104;-81
2020/12/29 03:59:31;;;;;;;87.15;60.90;;;;;;;5.77;71.34;95866.61;119304;1150;65203;-82
2020/12/29 04:01:57;;;;;;;31.27;22.97;;;;;;;5.73;71.58;95854.66;119111;1150;65153;-82
2020/12/29 04:04:24;;;;;;;11.80;9.03;;;;;;;5.70;71.51;95870.82;119243;1151;65118;-81
2020/12/29 04:06:50;;;;;;;11.17;8.27;;;;;;;5.66;71.73;95864.16;119264;1151;65523;-81
2020/12/29 04:09:17;;;;;;;11.53;9.43;;;;;;;5.63;71.57;95867.93;119095;1151;65232;-81
2020/12/29 04:11:43;;;;;;;8.80;6.63;;;;;;;5.62;71.94;95868.92;119338;1151;65110;-82
2020/12/29 04:14:09;;;;;;;6.60;4.57;;;;;;;5.63;72.00;95864.46;119134;1150;65194;-82
2020/12/29 04:16:36;;;;;;;14.37;10.87;;;;;;;5.66;71.83;95867.66;119304;1150;65028;-80
2020/12/29 04:19:02;;;;;;;7.60;5.45;;;;;;;5.70;71.99;95863.72;119209;1150;65120;-80
2020/12/29 04:21:29;;;;;;;9.33;6.10;;;;;;;5.72;72.12;95853.02;118857;1150;65095;-78
2020/12/29 04:23:55;;;;;;;8.07;6.70;;;;;;;5.75;71.85;95863.28;119283;1150;65124;-81
2020/12/29 04:26:22;;;;;;;7.80;5.03;;;;;;;5.76;71.92;95857.00;119336;1150;65121;-80
2020/12/29 04:28:48;;;;;;;9.83;6.40;;;;;;;5.73;72.08;95860.77;119328;1151;65266;-80
2020/12/29 04:31:15;;;;;;;10.10;6.20;;;;;;;5.79;72.05;95879.65;118779;1151;65280;-82
2020/12/29 04:33:42;;;;;;;9.70;6.05;;;;;;;5.79;71.79;95875.19;119259;1150;65099;-81
2020/12/29 04:36:09;;;;;;;8.65;5.60;;;;;;;5.81;71.88;95875.88;119187;1150;65161;-81
2020/12/29 04:38:36;;;;;;;7.70;5.25;;;;;;;5.81;72.08;95869.77;119305;1150;65140;-83
2020/12/29 04:41:03;;;;;;;7.85;5.75;;;;;;;5.83;72.06;95866.00;118954;1151;65221;-83
2020/12/29 04:43:32;;;;;;;11.03;9.23;;;;;;;5.86;72.01;95880.72;119103;1151;65116;-81
2020/12/29 04:46:04;;;;;;;12.73;7.07;;;;;;;5.85;72.03;95881.72;118862;1151;65617;-82
2020/12/29 04:48:31;;;;;;;10.63;7.73;;;;;;;5.85;71.81;95876.43;119240;1151;65268;-82
2020/12/29 04:51:04;;;;;;;9.60;5.93;;;;;;;5.84;72.12;95880.86;119355;1150;65162;-81
2020/12/29 04:53:32;;;;;;;7.60;5.57;;;;;;;5.82;71.88;95882.84;119115;1151;65158;-79
2020/12/29 04:56:06;;;;;;;8.57;5.10;;;;;;;5.81;72.25;95888.27;119258;1150;65649;-82
2020/12/29 04:58:34;;;;;;;6.75;4.60;;;;;;;5.79;72.30;95891.05;118800;1151;65115;-82
2020/12/29 05:01:07;;;;;;;4.20;3.47;;;;;;;5.80;72.07;95908.58;119030;1151;65095;-82
2020/12/29 05:03:47;;;;;;;3.83;2.97;;;;;;;5.82;72.05;95901.34;118989;1151;65465;-83
2020/12/29 05:06:14;;;;;;;4.43;2.67;;;;;;;5.88;72.29;95899.91;119131;1150;65121;-83
2020/12/29 05:08:47;;;;;;;6.43;3.77;;;;;;;5.92;72.33;95907.39;119279;1151;65111;-82
2020/12/29 05:11:16;;;;;;;6.47;4.13;;;;;;;6.01;72.23;95912.80;119041;1151;65179;-82
2020/12/29 05:13:43;;;;;;;7.37;4.67;;;;;;;6.06;72.05;95916.64;119174;1151;65178;-82
2020/12/29 05:16:10;;;;;;;8.90;5.60;;;;;;;6.09;72.20;95918.98;119243;1151;65443;-81
2020/12/29 05:18:37;;;;;;;5.10;4.03;;;;;;;6.11;72.16;95924.13;119368;1151;65227;-82
2020/12/29 05:21:04;;;;;;;4.10;2.60;;;;;;;6.11;72.24;95938.17;119182;1151;65080;-82
2020/12/29 05:23:30;;;;;;;3.83;2.67;;;;;;;6.13;72.09;95949.44;119356;1151;65139;-83
2020/12/29 05:25:57;;;;;;;5.93;3.73;;;;;;;6.11;72.55;95948.75;119302;1150;65155;-83
2020/12/29 05:28:27;;;;;;;5.20;2.17;;;;;;;6.13;72.56;95952.08;119354;1151;65085;-83
2020/12/29 05:30:59;;;;;;;4.23;1.90;;;;;;;6.22;72.58;95960.09;119007;1151;65484;-83
2020/12/29 05:33:27;;;;;;;3.60;1.60;;;;;;;6.29;72.55;95969.92;119179;1150;65197;-81
2020/12/29 05:35:55;;;;;;;4.60;1.87;;;;;;;6.34;72.55;95983.49;119098;1151;65127;-81
2020/12/29 05:38:22;;;;;;;4.13;1.90;;;;;;;6.39;72.78;95983.05;119138;1151;65194;-81
2020/12/29 05:40:50;;;;;;;3.50;2.27;;;;;;;6.41;72.53;95985.56;119337;1151;65033;-81
2020/12/29 05:43:31;;;;;;;3.40;1.80;;;;;;;6.42;72.73;95989.85;119353;1151;65057;-81
2020/12/29 05:46:00;;;;;;;1.80;1.10;;;;;;;6.39;73.01;96004.21;119026;1151;65102;-80
2020/12/29 05:48:27;;;;;;;2.43;1.20;;;;;;;6.37;73.01;96016.75;119071;1150;65121;-82
2020/12/29 05:50:53;;;;;;;2.77;1.37;;;;;;;6.35;73.62;96019.56;119271;1151;65200;-81
2020/12/29 05:53:22;;;;;;;1.53;1.13;;;;;;;6.32;73.12;96027.80;119302;1150;65014;-81
2020/12/29 05:55:49;;;;;;;2.30;1.60;;;;;;;6.30;73.58;96026.28;119361;1150;65168;-79
2020/12/29 05:58:16;;;;;;;1.17;0.83;;;;;;;6.25;73.25;96045.23;119139;1150;65329;-80
2020/12/29 06:00:43;;;;;;;1.33;0.80;;;;;;;6.20;73.46;96052.78;119081;1151;65229;-80
2020/12/29 06:03:09;;;;;;;2.50;1.20;;;;;;;6.14;73.42;96064.78;118851;1150;65185;-81
2020/12/29 06:05:37;;;;;;;2.97;1.80;;;;;;;6.07;74.10;96073.44;119185;1151;65051;-82
2020/12/29 06:08:06;;;;;;;2.95;1.55;;;;;;;6.00;74.17;96082.93;119331;1151;65114;-81
2020/12/29 06:10:35;;;;;;;2.87;1.20;;;;;;;5.86;74.36;96097.43;119290;1149;65194;-83
2020/12/29 06:13:04;;;;;;;1.57;1.17;;;;;;;5.72;75.82;96096.92;119283;1151;65176;-80
2020/12/29 06:15:37;;;;;;;1.55;1.15;;;;;;;5.59;75.58;96109.61;119335;1150;65101;-81
2020/12/29 06:18:08;;;;;;;2.00;0.93;;;;;;;5.45;75.73;96113.55;119330;1150;65105;-81
2020/12/29 06:20:47;;;;;;;0.67;0.57;;;;;;;5.33;75.70;96119.95;119047;1151;65190;-81
2020/12/29 06:23:18;;;;;;;1.83;0.67;;;;;;;5.22;75.72;96135.94;119342;1150;65156;-81
2020/12/29 06:25:47;;;;;;;2.20;0.90;;;;;;;5.12;76.23;96153.59;119317;1151;65125;-81
2020/12/29 06:28:18;;;;;;;1.23;0.87;;;;;;;5.03;77.08;96160.54;119077;1151;65098;-80
2020/12/29 06:30:45;;;;;;;1.90;0.97;;;;;;;4.94;76.85;96167.45;118862;1151;65104;-79
2020/12/29 06:33:17;;;;;;;2.90;1.50;;;;;;;4.87;77.02;96173.42;119077;1151;65190;-83
2020/12/29 06:35:46;;;;;;;2.85;1.75;;;;;;;4.80;77.58;96191.62;118750;1150;65213;-83
2020/12/29 06:38:24;;;;;;;3.87;1.63;;;;;;;4.71;77.86;96193.24;118755;1151;65104;-80
2020/12/29 06:40:52;;;;;;;2.45;1.90;;;;;;;4.65;78.18;96206.16;118748;1151;65124;-82
2020/12/29 06:43:18;;;;;;;6.45;3.20;;;;;;;4.62;77.93;96230.99;119264;1151;65067;-80
2020/12/29 06:45:45;;;;;;;5.93;3.90;;;;;;;4.59;78.13;96240.01;119289;1150;65223;-82
2020/12/29 06:48:16;;;;;;;7.30;5.10;;;;;;;4.56;78.58;96260.55;119103;1151;65252;-81
2020/12/29 06:50:43;;;;;;;8.55;5.05;;;;;;;4.54;78.93;96267.75;119348;1150;65150;-81
2020/12/29 06:53:15;;;;;;;9.50;5.73;;;;;;;4.50;78.96;96290.93;119074;1151;65140;-81
2020/12/29 06:55:49;;;;;;;5.77;3.20;;;;;;;4.47;79.65;96312.27;119316;1150;65089;-81
2020/12/29 06:58:36;;;;;;;4.80;3.40;;;;;;;4.45;79.53;96321.27;119391;1151;65041;-81
2020/12/29 07:01:23;;;;;;;3.70;2.70;;;;;;;4.43;79.35;96339.05;119288;1150;65060;-81
2020/12/29 07:04:07;;;;;;;4.37;2.60;;;;;;;4.41;79.60;96347.08;119326;1150;65620;-81
2020/12/29 07:06:35;;;;;;;3.35;2.40;;;;;;;4.42;79.63;96367.19;119060;1151;65562;-81
2020/12/29 07:09:08;;;;;;;2.57;1.80;;;;;;;4.43;79.22;96375.97;119341;1150;65124;-80
2020/12/29 07:11:35;;;;;;;4.20;2.63;;;;;;;4.42;79.28;96379.55;119079;1151;65182;-81
2020/12/29 07:14:05;;;;;;;3.53;2.57;;;;;;;4.43;79.12;96386.52;119089;1150;65139;-81
2020/12/29 07:16:34;;;;;;;4.33;3.20;;;;;;;4.43;79.00;96395.25;119363;1150;65105;-81
2020/12/29 07:19:13;;;;;;;3.75;3.40;;;;;;;4.46;78.63;96399.44;119292;1150;65167;-81
2020/12/29 07:21:48;;;;;;;5.00;3.97;;;;;;;4.47;78.51;96406.37;119278;1150;65124;-80
2020/12/29 07:24:17;;;;;;;5.33;4.50;;;;;;;4.50;78.44;96421.93;119303;1149;65206;-82
2020/12/29 07:26:44;;;;;;;6.20;4.73;;;;;;;4.51;78.37;96413.07;119375;1150;65124;-80
2020/12/29 07:29:10;;;;;;;5.77;4.10;;;;;;;4.52;78.60;96430.56;119045;1151;65184;-81
2020/12/29 07:31:40;;;;;;;7.10;5.23;;;;;;;4.52;77.87;96441.11;118681;1151;65497;-80
2020/12/29 07:34:12;;;;;;;6.92;4.87;;;;;;;4.57;77.87;96446.83;119295;1151;65060;-82
2020/12/29 07:36:46;;;;;;;5.70;4.45;;;;;;;4.61;77.29;96445.62;119326;1151;65094;-82
2020/12/29 07:39:17;;;;;;;6.20;4.40;;;;;;;4.67;77.04;96434.55;119014;1151;65153;-81
2020/12/29 07:41:44;;;;;;;6.60;4.20;;;;;;;4.75;77.25;96473.48;119370;1151;65182;-80
2020/12/29 07:44:11;;;;;;;4.80;3.73;;;;;;;4.81;76.65;96460.59;119130;1150;65181;-82
2020/12/29 07:46:37;;;;;;;5.90;5.10;;;;;;;4.89;76.37;96488.14;119345;1150;65136;-82
2020/12/29 07:49:04;;;;;;;5.80;4.60;;;;;;;4.92;76.02;96493.99;119164;1150;65101;-82
2020/12/29 07:51:44;;;;;;;6.65;4.30;;;;;;;4.98;75.50;96485.58;119158;1151;65164;-80
2020/12/29 07:54:11;;;;;;;5.77;4.47;;;;;;;5.04;75.05;96498.25;119092;1151;65123;-81
2020/12/29 07:56:39;;;;;;;6.43;4.90;;;;;;;5.11;74.25;96510.91;119355;1149;65114;-82
2020/12/29 07:59:10;;;;;;;6.50;4.57;;;;;;;5.19;74.41;96508.48;119061;1150;65066;-81
2020/12/29 08:01:50;;;;;;;5.67;4.40;;;;;;;5.24;73.21;96496.56;119064;1151;65121;-80
2020/12/29 08:04:27;;;;;;;5.70;4.30;;;;;;;5.31;73.44;96510.06;119271;1150;65092;-81
2020/12/29 08:06:54;;;;;;;5.05;4.50;;;;;;;5.37;73.71;96520.13;119354;1151;65153;-81
2020/12/29 08:09:21;;;;;;;6.43;4.80;;;;;;;5.38;72.88;96523.59;119292;1150;65126;-81
2020/12/29 08:11:47;;;;;;;8.97;5.17;;;;;;;5.39;73.04;96541.10;119290;1150;65114;-80
2020/12/29 08:14:14;;;;;;;7.00;5.13;;;;;;;5.40;72.96;96546.27;119115;1151;65503;-81
2020/12/29 08:16:40;;;;;;;6.87;4.50;;;;;;;5.40;72.90;96561.28;119327;1150;65294;-80
2020/12/29 08:19:09;;;;;;;5.23;3.80;;;;;;;5.40;72.55;96558.64;119321;1150;65104;-80
2020/12/29 08:21:37;;;;;;;7.00;5.03;;;;;;;5.38;72.73;96558.75;119075;1151;65136;-81
2020/12/29 08:24:05;;;;;;;6.67;4.57;;;;;;;5.39;73.15;96572.80;119305;1150;65108;-80
2020/12/29 08:26:33;;;;;;;5.57;3.90;;;;;;;5.38;72.81;96563.20;118778;1151;65103;-78
2020/12/29 08:29:00;;;;;;;7.35;4.15;;;;;;;5.38;73.03;96571.13;119026;1150;65133;-78
2020/12/29 08:31:29;;;;;;;5.37;3.97;;;;;;;5.38;72.92;96584.34;119208;1150;65092;-77
2020/12/29 08:33:58;;;;;;;8.13;6.03;;;;;;;5.39;72.96;96581.55;119209;1150;65123;-80
2020/12/29 08:36:28;;;;;;;8.95;5.50;;;;;;;5.40;72.89;96591.17;118574;1151;65095;-78
2020/12/29 08:39:22;;;;;;;6.80;5.47;;;;;;;5.42;73.02;96612.15;119062;1151;65088;-79
2020/12/29 08:41:56;;;;;;;8.40;4.90;;;;;;;5.43;72.80;96621.77;118680;1151;65188;-78
2020/12/29 08:44:26;;;;;;;10.00;6.10;;;;;;;5.45;72.98;96636.52;119269;1150;65156;-79
2020/12/29 08:46:54;;;;;;;;;;;;;;;5.48;72.97;96625.69;119250;1150;65107;-78
2020/12/29 08:49:29;;;;;;;10.85;6.00;;;;;;;5.51;73.04;96648.37;119084;1150;65101;-78
2020/12/29 08:51:56;;;;;;;10.20;6.10;;;;;;;5.53;73.14;96654.37;119232;1150;65135;-78
2020/12/29 08:54:23;;;;;;;9.70;5.40;;;;;;;5.57;72.83;96666.34;119120;1150;65462;-77
2020/12/29 08:57:00;;;;;;;9.85;6.20;;;;;;;5.59;72.70;96659.12;119046;1151;65210;-80
2020/12/29 08:59:34;;;;;;;11.00;6.50;;;;;;;5.63;72.62;96681.66;119239;1150;65092;-79
2020/12/29 09:02:01;;;;;;;11.03;6.27;;;;;;;5.67;72.88;96683.09;119270;1151;65108;-79
2020/12/29 09:04:33;;;;;;;10.70;6.97;;;;;;;5.71;72.62;96702.16;118976;1151;65108;-79
2020/12/29 09:07:06;;;;;;;14.37;7.70;;;;;;;5.72;71.72;96709.97;119255;1150;65217;-79
2020/12/29 09:09:39;;;;;;;12.47;7.80;;;;;;;5.78;72.18;96710.42;119227;1150;65245;-79
2020/12/29 09:12:19;;;;;;;15.40;9.43;;;;;;;5.84;72.35;96716.02;119003;1151;65111;-79
2020/12/29 09:14:55;;;;;;;17.13;9.70;;;;;;;5.90;72.33;96707.59;118999;1151;65063;-79
2020/12/29 09:17:24;;;;;;;15.17;8.77;;;;;;;5.99;71.95;96710.45;119249;1150;65099;-78
2020/12/29 09:20:21;;;;;;;12.43;7.60;;;;;;;6.04;71.56;96724.12;119277;1150;65497;-78
2020/12/29 09:23:11;;;;;;;9.90;6.80;;;;;;;6.09;71.34;96716.63;119088;1151;65105;-80
2020/12/29 09:25:44;;;;;;;12.67;6.97;;;;;;;6.13;71.04;96718.03;118651;1151;65130;-77
2020/12/29 09:28:24;;;;;;;12.83;7.17;;;;;;;6.17;70.84;96719.45;118943;1151;65187;-79
2020/12/29 09:31:07;;;;;;;7.20;4.87;;;;;;;6.22;70.36;96717.26;119279;1150;65098;-78
2020/12/29 09:33:37;;;;;;;7.30;4.45;;;;;;;6.29;69.44;96712.27;119292;1150;65706;-78
2020/12/29 09:36:07;;;;;;;10.37;6.30;;;;;;;6.34;69.38;96721.47;118685;1151;65468;-78
2020/12/29 09:38:34;;;;;;;6.80;4.40;;;;;;;6.42;68.45;96728.75;118672;1150;65091;-77
2020/12/29 09:41:03;;;;;;;6.70;4.33;;;;;;;6.48;67.05;96743.28;119250;1150;65201;-78
2020/12/29 09:43:29;;;;;;;5.77;4.23;;;;;;;6.52;67.88;96739.38;119319;1150;65131;-78
2020/12/29 09:45:59;;;;;;;5.67;3.63;;;;;;;6.57;66.93;96738.01;119019;1151;65201;-78
2020/12/29 09:48:27;;;;;;;7.08;4.30;;;;;;;6.63;67.48;96738.45;119283;1150;65028;-78
2020/12/29 09:50:54;;;;;;;5.40;3.50;;;;;;;6.67;66.97;96735.41;119262;1150;65190;-78
2020/12/29 09:53:21;;;;;;;7.10;4.45;;;;;;;6.69;66.18;96740.55;119218;1151;65037;-78
2020/12/29 09:55:47;;;;;;;6.03;3.73;;;;;;;6.71;66.43;96743.91;119035;1151;65167;-79
2020/12/29 09:58:14;;;;;;;8.20;4.43;;;;;;;6.72;66.68;96740.30;119158;1150;65297;-78
2020/12/29 10:00:40;;;;;;;7.67;4.37;;;;;;;6.75;66.01;96740.86;119057;1151;65252;-78
2020/12/29 10:03:08;;;;;;;6.70;3.90;;;;;;;6.81;65.71;96747.42;118958;1150;65111;-78
2020/12/29 10:05:34;;;;;;;4.20;2.67;;;;;;;6.81;64.91;96753.55;118783;1151;65014;-78
2020/12/29 10:08:00;;;;;;;5.47;3.90;;;;;;;6.80;64.98;96759.00;118983;1151;65200;-79
2020/12/29 10:10:27;;;;;;;5.97;3.63;;;;;;;6.84;65.49;96763.03;119223;1150;65278;-78
2020/12/29 10:12:53;;;;;;;5.47;3.47;;;;;;;6.89;65.98;96770.58;119240;1151;65200;-78
2020/12/29 10:15:20;;;;;;;4.87;3.15;;;;;;;6.92;63.80;96772.95;118998;1151;65127;-80
2020/12/29 10:17:46;;;;;;;6.53;3.87;;;;;;;6.97;64.44;96784.81;119263;1150;65136;-78
2020/12/29 10:20:14;;;;;;;5.23;3.57;;;;;;;7.02;64.41;96785.25;119018;1149;65149;-80
2020/12/29 10:22:40;;;;;;;5.77;3.70;;;;;;;7.08;63.83;96802.41;119230;1151;65596;-80
2020/12/29 10:25:14;;;;;;;4.33;3.07;;;;;;;7.13;63.48;96794.90;118855;1151;65143;-79
2020/12/29 10:27:45;;;;;;;6.73;3.60;;;;;;;7.18;63.70;96813.04;118767;1150;65111;-77
2020/12/29 10:30:12;;;;;;;5.03;2.93;;;;;;;7.20;62.69;96811.10;119161;1151;65140;-79
2020/12/29 10:32:40;;;;;;;6.77;3.67;;;;;;;7.25;63.83;96808.89;119153;1150;65105;-77
2020/12/29 10:35:07;;;;;;;5.57;3.60;;;;;;;7.33;63.64;96818.80;118989;1151;65170;-78
2020/12/29 10:37:34;;;;;;;6.80;3.60;;;;;;;7.36;62.80;96819.36;119272;1150;65098;-77
2020/12/29 10:40:03;;;;;;;6.80;3.60;;;;;;;7.44;63.04;96822.16;119026;1151;65226;-78
2020/12/29 10:42:30;;;;;;;3.75;2.85;;;;;;;7.50;61.30;96823.42;118973;1151;65121;-78
2020/12/29 10:44:57;;;;;;;4.93;2.93;;;;;;;7.54;62.15;96824.84;118965;1149;65111;-78
2020/12/29 10:47:23;;;;;;;6.30;3.63;;;;;;;7.59;62.49;96821.78;118779;1150;65115;-78
2020/12/29 10:49:50;;;;;;;5.55;3.20;;;;;;;7.63;61.87;96824.00;119233;1150;65187;-78
2020/12/29 10:52:17;;;;;;;3.97;2.80;;;;;;;7.66;61.41;96828.19;119216;1150;65118;-79
2020/12/29 10:54:43;;;;;;;3.30;2.20;;;;;;;7.70;60.29;96826.95;118997;1151;65115;-77
2020/12/29 10:57:09;;;;;;;3.60;2.60;;;;;;;7.72;60.29;96834.78;118885;1150;65149;-77
2020/12/29 10:59:36;;;;;;;5.40;2.10;;;;;;;7.73;60.71;96834.62;119042;1150;65166;-77
2020/12/29 11:02:04;;;;;;;3.57;2.30;;;;;;;7.77;60.00;96821.95;118799;1151;65229;-79
2020/12/29 11:04:30;;;;;;;4.43;2.43;;;;;;;7.81;59.69;96818.86;118500;1151;65217;-79
2020/12/29 11:06:56;;;;;;;4.47;2.37;;;;;;;7.84;60.48;96823.88;118756;1150;65133;-88
2020/12/29 11:09:23;;;;;;;5.60;2.67;;;;;;;7.86;60.66;96819.28;118742;1150;65497;-80
2020/12/29 11:11:50;;;;;;;4.00;2.67;;;;;;;7.91;60.03;96816.22;118807;1150;65112;-80
2020/12/29 11:14:16;;;;;;;5.75;3.95;;;;;;;7.95;60.66;96828.20;119010;1150;65095;-79
2020/12/29 11:16:42;;;;;;;5.03;3.43;;;;;;;8.00;60.65;96830.45;119122;1150;65130;-81
2020/12/29 11:19:09;;;;;;;6.20;3.87;;;;;;;8.05;61.05;96829.05;119022;1151;65105;-79
2020/12/29 11:21:35;;;;;;;4.87;3.17;;;;;;;8.09;59.46;96835.76;119240;1151;65602;-79
2020/12/29 11:24:02;;;;;;;4.43;2.90;;;;;;;7.99;58.96;96834.92;119030;1151;65213;-79
2020/12/29 11:26:28;;;;;;;6.60;3.40;;;;;;;7.87;59.02;96850.14;118970;1151;65252;-78
2020/12/29 11:28:55;;;;;;;5.67;3.63;;;;;;;7.76;59.71;96852.91;119218;1150;65126;-79
2020/12/29 11:31:22;;;;;;;7.87;4.53;;;;;;;7.64;60.00;96867.28;119036;1151;65162;-76
2020/12/29 11:33:50;;;;;;;6.27;3.00;;;;;;;7.64;60.79;96864.62;119254;1150;65118;-76
2020/12/29 11:36:18;;;;;;;6.37;3.77;;;;;;;7.69;61.06;96867.71;118991;1151;65607;-76
2020/12/29 11:38:45;;;;;;;4.70;3.03;;;;;;;7.75;60.35;96871.62;119097;1150;65252;-76